17分钟前
罗盘
风向 的 风向 的 风向 到 风向 260° Brive-Souillac DELETE/DELETE
风: 4 千吨, 2 beaufort
0 500 1.500 3.000 5.000 8.000 10.000
FEW 4.800 ft
METAR LFSL 042000Z AUTO 26004KT 220V310 9999 FEW048 05/02 Q1014 BECMG BKN012

METAR定义 | 嵌入

24小时趋势

航班类别VFRLIFR
温度11 °C4 °C
风速12 千吨0 千吨
能见度10 公里+0 米

更多历史数据

下载我们的安卓应用程序

从你的主屏幕上轻松地访问你的航空天气。
只需一次付费,您就可以获得无广告的体验。

您会帮助我们保持Metar-Taf.com正常运行吗?
您的贡献有助于网站的进一步开发并支付费用。

没有更多广告

您是捐款5美元还是更多?然后,我们将永远不会再向您展示广告,这是我们永恒的感谢!
捐赠前先登录

METAR Brive-Souillac

Brive-Souillac是Brive la Gaillarde,法国中的中型机场。 机场有{a,plural,=1{一条跑道} other{#跑道}}: DELETE/DELETE 和 11/29

该报告是针对2021年12月4日 21:00, 当地时间上的Brive-Souillac所做的。

机场观察

风来自西 (260°)方向,速度为4 千吨。 风向在南西 (220°)和北西 (310°)之间变化。

可见度为10 公里 或者更多。

有几云在4.800 ft的高度。 没有观察到天花板。

温度为5 °C,阵风为2 °C。 露点为2 °C,相对湿度为81%。 海平面上的气压为1014 压力 (QNH)。

发展趋势

  • 变得

    可变方向的风很小或没有。 碎云在1.200 ft的高度.

白天

今天,太阳从08:15升起,在17:13降落。 这适用于Brive-Souillac,世界夏令时可能有所不同。 当地时间与世界标准时间之间的时差为+1 小时。 当前,没有夏令时有效。

公司介绍

我们没有关于这个机场的公司信息。

体会

到Vliegles.nl去找飞行课程,跳伞和其他飞行体验。 浏览页面,了解Brive-Souillac附近所有可用的活动。 你也可以使用搜索功能来寻找你所在地附近的特定飞行课程、跳伞或其他飞行体验。

您是否要在网站上Brive-Souillac飞行的天气? 阅读更多   自由!